Time;durP1;ratioP1;P1;durP2;ratioP2;P2;SDS_P1;SDS_P2;PMS_P1;PMS_P2;Temp;Humidity;BMP_temperature;BMP_pressure;BME280_temperature;BME280_humidity;BME280_pressure;Samples;Min_cycle;Max_cycle;Signal;HPM_P1;HPM_P2
2022/10/20 05:03:11;;;;;;;22.67;14.40;;;11.20;99.90;;;;;;5256057;23;20241;-71
2022/10/20 05:05:37;;;;;;;27.73;14.50;;;11.20;99.90;;;;;;5021094;28;20030;-70
2022/10/20 05:08:05;;;;;;;29.45;15.50;;;11.20;99.90;;;;;;5021585;28;20101;-72
2022/10/20 05:10:31;;;;;;;29.08;14.38;;;11.20;99.90;;;;;;5022446;28;20036;-73
2022/10/20 05:12:57;;;;;;;25.67;14.30;;;11.30;99.90;;;;;;5021484;28;20025;-71
2022/10/20 05:15:22;;;;;;;27.77;14.63;;;11.30;99.90;;;;;;5004339;28;20085;-70
2022/10/20 05:17:48;;;;;;;26.08;13.52;;;11.30;99.90;;;;;;5003940;28;20030;-71
2022/10/20 05:20:14;;;;;;;25.63;14.38;;;11.30;99.90;;;;;;5021925;28;20041;-71
2022/10/20 05:22:40;;;;;;;29.13;13.90;;;11.30;99.90;;;;;;5022374;28;20030;-70
2022/10/20 05:25:06;;;;;;;34.58;17.70;;;11.30;99.90;;;;;;5021198;28;20215;-71
2022/10/20 05:27:31;;;;;;;29.90;15.90;;;11.40;99.90;;;;;;5022257;28;20029;-70
2022/10/20 05:29:57;;;;;;;28.15;14.98;;;11.40;99.90;;;;;;5021514;28;20045;-70
2022/10/20 05:32:23;;;;;;;27.48;14.85;;;11.40;99.90;;;;;;5022422;28;20021;-71
2022/10/20 05:34:48;;;;;;;31.95;15.50;;;11.40;99.90;;;;;;5021364;28;20093;-71
2022/10/20 05:37:14;;;;;;;31.42;14.95;;;11.40;99.90;;;;;;5021917;28;20033;-70
2022/10/20 05:39:41;;;;;;;22.80;14.20;;;11.40;99.90;;;;;;5004555;28;20304;-71
2022/10/20 05:42:07;;;;;;;22.73;13.38;;;11.40;99.90;;;;;;5021419;28;20026;-71
2022/10/20 05:44:32;;;;;;;26.27;13.40;;;11.40;99.90;;;;;;5022340;28;20199;-71
2022/10/20 05:46:58;;;;;;;31.17;17.75;;;11.40;99.90;;;;;;5021824;28;20128;-72
2022/10/20 05:49:23;;;;;;;31.83;18.92;;;11.40;99.90;;;;;;5022297;28;20065;-72
2022/10/20 05:51:49;;;;;;;26.50;14.10;;;11.40;99.90;;;;;;5021244;28;20160;-72
2022/10/20 05:54:15;;;;;;;23.80;13.77;;;11.50;99.90;;;;;;5021776;28;20038;-71
2022/10/20 05:56:41;;;;;;;22.67;12.85;;;11.50;99.90;;;;;;5021987;28;20084;-72
2022/10/20 05:59:07;;;;;;;23.73;13.93;;;11.50;99.90;;;;;;5021203;28;20037;-71
2022/10/20 06:01:48;;;;;;;22.08;12.32;;;11.50;99.90;;;;;;5024829;28;20045;-71
2022/10/20 06:04:17;;;;;;;20.40;11.85;;;11.50;99.90;;;;;;5041584;28;20036;-70
2022/10/20 06:06:43;;;;;;;20.30;12.07;;;11.60;99.90;;;;;;5041657;28;20037;-71
2022/10/20 06:09:10;;;;;;;20.75;12.23;;;11.60;99.90;;;;;;5023496;28;20030;-72
2022/10/20 06:11:37;;;;;;;18.90;11.57;;;11.70;99.90;;;;;;5041410;28;20033;-72
2022/10/20 06:14:03;;;;;;;21.48;11.45;;;11.70;99.90;;;;;;5040987;28;20075;-73
2022/10/20 06:16:28;;;;;;;20.15;11.15;;;11.70;99.90;;;;;;5042457;28;20033;-69
2022/10/20 06:18:56;;;;;;;18.00;11.07;;;11.70;99.90;;;;;;5044627;28;20315;-71
2022/10/20 06:21:24;;;;;;;17.95;10.25;;;11.80;99.90;;;;;;5044948;28;20400;-71
2022/10/20 06:23:51;;;;;;;17.80;10.75;;;11.80;99.90;;;;;;5044960;28;20206;-70
2022/10/20 06:26:19;;;;;;;18.13;10.60;;;11.80;99.90;;;;;;5045248;28;20079;-71
2022/10/20 06:28:46;;;;;;;;;;;11.80;99.90;;;;;;5045625;28;20092;-70
2022/10/20 06:31:23;;;;;;;16.05;10.48;;;11.90;99.90;;;;;;5044271;28;19967;-71
2022/10/20 06:33:49;;;;;;;17.77;11.23;;;11.90;99.90;;;;;;5026985;28;20097;-72
2022/10/20 06:36:16;;;;;;;18.83;10.85;;;11.90;99.90;;;;;;5044937;28;20030;-70
2022/10/20 06:38:42;;;;;;;20.27;11.73;;;12.00;99.90;;;;;;5027122;28;20272;-70
2022/10/20 06:41:11;;;;;;;23.38;12.55;;;12.00;99.90;;;;;;5044716;28;20033;-71
2022/10/20 06:43:36;;;;;;;;;;;12.10;99.90;;;;;;5045572;28;20034;-70
2022/10/20 06:46:05;;;;;;;21.15;11.38;;;12.10;99.90;;;;;;5044493;28;19912;-71
2022/10/20 06:48:31;;;;;;;23.73;11.55;;;12.10;99.90;;;;;;5044936;28;20037;-71
2022/10/20 06:51:02;;;;;;;21.20;11.02;;;12.10;99.90;;;;;;5044487;28;20052;-71
2022/10/20 06:53:29;;;;;;;17.88;11.05;;;12.20;99.90;;;;;;5044750;28;20025;-70
2022/10/20 06:56:07;;;;;;;16.85;10.27;;;12.20;99.90;;;;;;5044018;28;20033;-70
2022/10/20 06:58:34;;;;;;;16.35;9.80;;;12.20;99.90;;;;;;5044385;28;20072;-72
2022/10/20 07:01:22;;;;;;;13.90;9.50;;;12.30;99.90;;;;;;5040656;28;20030;-70
2022/10/20 07:03:48;;;;;;;14.77;8.83;;;12.40;99.90;;;;;;5038523;28;20104;-71
2022/10/20 07:06:20;;;;;;;14.60;9.10;;;12.50;99.90;;;;;;5042864;28;20303;-71
2022/10/20 07:08:46;;;;;;;12.95;8.70;;;12.60;99.90;;;;;;5024296;28;20041;-71
2022/10/20 07:11:15;;;;;;;12.90;8.48;;;12.70;99.90;;;;;;5023765;28;20299;-72
2022/10/20 07:13:41;;;;;;;16.20;9.57;;;12.80;99.90;;;;;;5024290;28;20308;-70
2022/10/20 07:16:10;;;;;;;15.73;8.93;;;12.90;99.90;;;;;;5023778;28;20072;-70
2022/10/20 07:18:36;;;;;;;;;;;13.00;99.90;;;;;;5027529;28;20064;-69
2022/10/20 07:21:05;;;;;;;16.10;8.82;;;13.20;99.90;;;;;;5043496;28;19909;-70
2022/10/20 07:23:41;;;;;;;14.25;8.00;;;13.30;99.90;;;;;;5043535;28;20026;-76
2022/10/20 07:26:13;;;;;;;15.68;8.10;;;13.50;99.90;;;;;;5043108;28;20071;-71
2022/10/20 07:28:44;;;;;;;12.65;7.38;;;13.60;99.90;;;;;;5037541;28;20057;-73
2022/10/20 07:31:23;;;;;;;12.15;7.05;;;13.70;99.90;;;;;;5041368;28;20026;-72
2022/10/20 07:33:52;;;;;;;11.23;6.70;;;13.80;99.90;;;;;;5042036;28;20040;-70
2022/10/20 07:36:20;;;;;;;9.55;6.57;;;13.90;99.90;;;;;;5041773;28;20021;-70
2022/10/20 07:38:47;;;;;;;10.63;6.97;;;14.00;99.90;;;;;;5041764;28;20091;-70
2022/10/20 07:41:14;;;;;;;11.43;6.88;;;14.00;99.90;;;;;;5041700;28;20357;-70
2022/10/20 07:43:40;;;;;;;11.32;6.72;;;14.00;99.90;;;;;;5042399;28;20048;-70
2022/10/20 07:46:07;;;;;;;10.07;6.88;;;14.10;99.90;;;;;;5041022;28;20040;-70
2022/10/20 07:48:33;;;;;;;10.05;7.03;;;14.20;99.90;;;;;;5041932;28;20021;-70
2022/10/20 07:51:25;;;;;;;11.25;6.68;;;14.30;99.90;;;;;;5041059;28;20311;-70
2022/10/20 07:53:53;;;;;;;9.00;6.22;;;14.40;99.90;;;;;;5028345;28;20108;-72
2022/10/20 07:56:19;;;;;;;10.38;7.15;;;14.50;99.90;;;;;;5041348;28;20071;-70
2022/10/20 07:58:45;;;;;;;10.27;6.60;;;14.50;99.90;;;;;;5041765;28;20069;-70
2022/10/20 08:01:11;;;;;;;13.43;6.70;;;14.50;99.90;;;;;;5041044;28;20030;-71
2022/10/20 08:03:37;;;;;;;10.10;6.82;;;14.60;99.90;;;;;;5041110;28;20043;-71
2022/10/20 08:06:04;;;;;;;10.38;6.72;;;14.60;99.90;;;;;;5040857;28;20108;-71
2022/10/20 08:08:29;;;;;;;9.80;6.20;;;14.70;99.90;;;;;;5041699;28;20060;-70
2022/10/20 08:10:57;;;;;;;9.85;6.32;;;14.70;99.90;;;;;;5041220;28;20053;-70
2022/10/20 08:13:24;;;;;;;9.02;6.15;;;14.60;99.90;;;;;;5041830;28;20051;-70
2022/10/20 08:15:50;;;;;;;8.93;6.38;;;14.60;99.90;;;;;;5037385;28;20037;-70
2022/10/20 08:18:15;;;;;;;8.73;6.30;;;14.70;99.90;;;;;;5021000;28;20356;-72
2022/10/20 08:20:41;;;;;;;10.77;6.85;;;14.90;99.90;;;;;;5034367;28;20037;-70
2022/10/20 08:23:07;;;;;;;7.60;5.47;;;15.10;99.90;;;;;;5040994;28;20037;-71
2022/10/20 08:25:33;;;;;;;10.07;5.95;;;15.30;99.90;;;;;;5041459;28;20260;-71
2022/10/20 08:27:59;;;;;;;10.95;6.50;;;15.50;99.90;;;;;;5022937;28;20052;-70
2022/10/20 08:30:25;;;;;;;8.65;5.68;;;15.50;99.90;;;;;;5040874;28;20092;-72
2022/10/20 08:32:51;;;;;;;11.15;5.78;;;15.50;99.90;;;;;;5008331;28;20026;-71
2022/10/20 08:35:18;;;;;;;8.43;4.90;;;15.60;99.90;;;;;;5020837;28;20076;-69
2022/10/20 08:37:44;;;;;;;6.78;4.63;;;15.70;99.90;;;;;;5035793;28;20287;-71
2022/10/20 08:40:19;;;;;;;7.38;4.47;;;15.60;99.90;;;;;;5039460;28;20091;-71
2022/10/20 08:42:49;;;;;;;6.47;4.47;;;15.70;99.90;;;;;;5041201;28;20052;-71
2022/10/20 08:45:21;;;;;;;6.45;4.60;;;15.80;99.90;;;;;;5041711;28;20029;-69
2022/10/20 08:47:49;;;;;;;7.13;5.07;;;15.80;99.90;;;;;;5023043;28;20037;-70
2022/10/20 08:50:17;;;;;;;8.30;4.75;;;15.80;99.90;;;;;;5041861;28;20017;-71
2022/10/20 08:52:44;;;;;;;7.90;4.47;;;15.90;99.90;;;;;;5041962;28;20041;-72
2022/10/20 08:55:28;;;;;;;7.10;4.95;;;15.90;99.90;;;;;;5041437;28;20456;-72
2022/10/20 08:58:10;;;;;;;8.07;4.55;;;16.00;99.90;;;;;;5041395;28;20033;-70
2022/10/20 09:00:37;;;;;;;6.80;4.72;;;16.20;99.90;;;;;;5042029;28;20048;-70
2022/10/20 09:03:14;;;;;;;6.80;4.20;;;16.40;99.90;;;;;;5036648;28;20044;-71
2022/10/20 09:05:43;;;;;;;5.97;4.03;;;16.50;99.90;;;;;;5042012;28;20051;-72
2022/10/20 09:08:09;;;;;;;5.57;3.70;;;16.60;99.90;;;;;;5041585;28;20339;-72
2022/10/20 09:10:36;;;;;;;6.65;4.28;;;16.70;99.90;;;;;;5041874;28;20033;-71
2022/10/20 09:13:10;;;;;;;8.98;4.13;;;16.80;99.90;;;;;;5041458;28;20100;-71
2022/10/20 09:15:39;;;;;;;7.07;4.00;;;17.00;99.90;;;;;;5042087;28;20270;-72
2022/10/20 09:18:10;;;;;;;9.60;4.05;;;17.20;99.90;;;;;;5038443;28;20025;-72
2022/10/20 09:20:52;;;;;;;5.20;3.58;;;17.30;99.90;;;;;;5040830;28;20448;-70
2022/10/20 09:23:43;;;;;;;8.13;3.40;;;17.50;99.90;;;;;;5023386;28;20075;-72
2022/10/20 09:26:18;;;;;;;7.18;3.45;;;17.60;99.90;;;;;;5040243;28;20061;-72
2022/10/20 09:28:51;;;;;;;7.18;3.20;;;17.70;99.90;;;;;;5040813;28;20037;-71
2022/10/20 09:31:51;;;;;;;8.68;3.63;;;17.80;99.90;;;;;;4999877;28;20030;-71
2022/10/20 09:34:29;;;;;;;6.85;3.70;;;17.90;99.90;;;;;;5003863;28;20095;-72
2022/10/20 09:37:09;;;;;;;5.75;3.60;;;17.90;99.90;;;;;;5040074;28;20038;-71
2022/10/20 09:39:45;;;;;;;7.57;3.63;;;17.80;99.90;;;;;;5041115;28;20204;-71
2022/10/20 09:42:18;;;;;;;5.78;3.67;;;18.00;99.90;;;;;;5041503;28;20095;-71
2022/10/20 09:44:52;;;;;;;5.47;3.35;;;18.00;99.90;;;;;;5041836;28;20034;-71
2022/10/20 09:47:19;;;;;;;5.20;3.60;;;18.00;99.90;;;;;;5020196;28;20038;-71
2022/10/20 09:49:46;;;;;;;6.97;3.35;;;18.00;99.90;;;;;;5022073;28;20025;-70
2022/10/20 09:52:22;;;;;;;6.38;3.60;;;17.80;99.90;;;;;;4991025;28;20071;-71
2022/10/20 09:54:59;;;;;;;5.82;3.67;;;17.80;99.90;;;;;;5040051;28;20025;-70
2022/10/20 09:57:25;;;;;;;6.68;3.65;;;17.80;99.90;;;;;;5046296;28;20089;-70
2022/10/20 09:59:52;;;;;;;6.38;3.35;;;17.80;99.90;;;;;;5046087;28;20101;-71
2022/10/20 10:02:18;;;;;;;7.28;3.60;;;17.80;99.90;;;;;;5044617;28;20045;-73
2022/10/20 10:04:46;;;;;;;5.60;3.67;;;17.90;99.90;;;;;;5027298;28;20048;-72
2022/10/20 10:07:24;;;;;;;7.18;3.70;;;17.90;99.90;;;;;;5044286;28;20100;-71
2022/10/20 10:10:28;;;;;;;4.90;3.50;;;18.00;99.90;;;;;;5044511;28;20044;-72
2022/10/20 10:13:04;;;;;;;6.60;3.83;;;18.20;99.90;;;;;;5044756;28;20428;-72
2022/10/20 10:15:34;;;;;;;6.22;3.67;;;18.40;99.90;;;;;;5010658;28;20037;-71
2022/10/20 10:18:14;;;;;;;7.20;3.72;;;18.40;99.90;;;;;;5044623;28;20025;-72
2022/10/20 10:20:40;;;;;;;5.20;3.42;;;18.60;99.90;;;;;;5026671;28;20328;-71
2022/10/20 10:23:23;;;;;;;4.95;3.55;;;18.70;99.90;;;;;;5026795;28;20091;-71
2022/10/20 10:25:50;;;;;;;6.97;3.50;;;18.90;99.90;;;;;;5024834;28;20038;-71
2022/10/20 10:28:22;;;;;;;5.90;3.50;;;19.00;99.90;;;;;;5024150;28;20037;-72
2022/10/20 10:31:18;;;;;;;6.03;3.17;;;19.10;99.90;;;;;;5042021;28;20049;-73
2022/10/20 10:33:44;;;;;;;4.82;2.65;;;19.20;99.90;;;;;;5044518;28;20097;-70
2022/10/20 10:36:31;;;;;;;6.35;3.70;;;19.30;99.90;;;;;;5043722;28;20025;-71
2022/10/20 10:38:58;;;;;;;5.32;3.63;;;19.20;99.90;;;;;;5026341;28;20064;-71
2022/10/20 10:41:45;;;;;;;5.28;2.97;;;19.40;99.90;;;;;;5044107;28;20311;-71
2022/10/20 10:44:29;;;;;;;6.10;2.90;;;19.60;99.90;;;;;;5043631;28;20314;-71
2022/10/20 10:47:29;;;;;;;7.25;3.45;;;19.70;99.90;;;;;;5044029;28;20044;-71
2022/10/20 10:50:20;;;;;;;7.07;3.33;;;19.90;99.90;;;;;;5043785;28;20056;-72
2022/10/20 10:53:22;;;;;;;6.20;3.42;;;19.90;99.90;;;;;;5044579;28;20029;-71
2022/10/20 10:55:53;;;;;;;5.05;2.95;;;20.00;99.90;;;;;;5030094;28;20029;-71
2022/10/20 10:58:57;;;;;;;4.35;2.92;;;19.90;99.90;;;;;;5043304;28;20029;-71
2022/10/20 11:02:00;;;;;;;5.75;3.42;;;19.60;99.90;;;;;;5043764;28;20096;-71
2022/10/20 11:04:44;;;;;;;6.60;3.50;;;19.40;99.90;;;;;;5002793;28;20086;-71
2022/10/20 11:07:39;;;;;;;9.93;3.83;;;19.20;99.90;;;;;;5004100;28;20045;-72
2022/10/20 11:10:30;;;;;;;5.53;3.65;;;19.00;99.90;;;;;;5003019;28;20037;-71
2022/10/20 11:13:14;;;;;;;8.60;3.50;;;18.90;99.90;;;;;;5004332;28;20304;-71
2022/10/20 11:15:59;;;;;;;5.93;3.45;;;18.80;99.90;;;;;;5004314;28;20022;-72
2022/10/20 11:19:01;;;;;;;4.68;3.20;;;18.80;99.90;;;;;;5003765;28;20258;-73
2022/10/20 11:21:48;;;;;;;8.95;3.25;;;18.80;99.90;;;;;;5004491;28;20077;-71
2022/10/20 11:24:48;;;;;;;5.43;3.45;;;19.00;99.90;;;;;;5003778;28;20026;-72
2022/10/20 11:27:26;;;;;;;6.57;4.15;;;19.10;99.90;;;;;;5003782;28;20090;-72
2022/10/20 11:30:20;;;;;;;6.70;3.72;;;19.50;99.90;;;;;;5004201;28;20308;-70
2022/10/20 11:33:00;;;;;;;7.43;3.60;;;19.60;99.90;;;;;;5003851;28;20102;-72
2022/10/20 11:35:50;;;;;;;8.20;4.05;;;19.70;99.90;;;;;;5003534;28;20204;-73
2022/10/20 11:38:43;;;;;;;5.35;3.90;;;19.60;99.90;;;;;;5002842;28;20037;-72
2022/10/20 11:41:42;;;;;;;9.40;3.88;;;19.70;99.90;;;;;;4986181;28;20053;-70
2022/10/20 11:44:24;;;;;;;6.80;3.40;;;19.80;99.90;;;;;;5003279;28;20045;-71
2022/10/20 11:47:22;;;;;;;6.38;3.83;;;19.80;99.90;;;;;;5003414;28;20042;-74
2022/10/20 11:49:54;;;;;;;8.07;3.28;;;19.60;99.90;;;;;;4926968;29;20388;-78
2022/10/20 11:52:50;;;;;;;7.53;3.15;;;19.30;99.90;;;;;;5002008;28;20070;-74
2022/10/20 11:55:31;;;;;;;6.32;3.78;;;19.30;99.90;;;;;;5019558;28;20038;-73
2022/10/20 11:58:31;;;;;;;8.52;3.53;;;19.30;99.90;;;;;;5005631;28;20057;-72
2022/10/20 12:01:40;;;;;;;7.25;3.47;;;19.40;99.90;;;;;;5023021;28;20338;-74
2022/10/20 12:04:31;;;;;;;4.80;3.00;;;19.50;99.90;;;;;;5014619;28;20045;-74
2022/10/20 12:07:19;;;;;;;8.60;3.67;;;19.40;99.90;;;;;;4985770;28;20038;-73
2022/10/20 12:10:07;;;;;;;9.73;4.38;;;19.20;99.90;;;;;;5003230;28;20034;-72
2022/10/20 12:12:40;;;;;;;6.18;3.67;;;19.00;99.90;;;;;;5002286;28;20101;-71
2022/10/20 12:15:24;;;;;;;4.85;3.30;;;18.90;99.90;;;;;;4985492;28;20058;-71
2022/10/20 12:17:56;;;;;;;5.32;3.55;;;18.80;99.90;;;;;;5003139;28;20048;-70
2022/10/20 12:20:37;;;;;;;7.00;3.97;;;18.90;99.90;;;;;;5002606;28;20089;-70
2022/10/20 12:23:28;;;;;;;7.40;3.50;;;18.80;99.90;;;;;;5002778;28;20074;-71
2022/10/20 12:25:54;;;;;;;5.97;3.25;;;18.90;99.90;;;;;;4983178;28;20513;-71
2022/10/20 12:28:23;;;;;;;5.35;3.80;;;18.80;99.90;;;;;;4982958;28;20043;-72
2022/10/20 12:30:58;;;;;;;5.97;3.50;;;18.90;99.90;;;;;;4974316;28;20278;-72
2022/10/20 12:33:38;;;;;;;6.88;3.20;;;18.80;99.90;;;;;;5002381;28;20338;-72
2022/10/20 12:36:36;;;;;;;5.45;3.20;;;18.90;99.90;;;;;;5002461;28;20042;-71
2022/10/20 12:39:10;;;;;;;7.50;3.20;;;18.80;99.90;;;;;;5002361;28;20038;-73
2022/10/20 12:42:04;;;;;;;4.90;3.00;;;18.90;99.90;;;;;;5002762;28;20302;-72
2022/10/20 12:44:42;;;;;;;5.22;3.05;;;18.80;99.90;;;;;;4984641;28;20074;-72
2022/10/20 12:47:09;;;;;;;5.22;3.05;;;18.70;99.90;;;;;;5002089;28;20042;-72
2022/10/20 12:49:41;;;;;;;6.55;3.30;;;18.60;99.90;;;;;;5001820;28;20278;-72
2022/10/20 12:52:18;;;;;;;5.07;3.13;;;18.50;99.90;;;;;;5002000;28;20030;-72
2022/10/20 12:54:44;;;;;;;7.95;3.40;;;18.50;99.90;;;;;;5014510;28;20038;-71
2022/10/20 12:57:42;;;;;;;5.72;3.30;;;18.50;99.90;;;;;;5021464;28;20042;-71
2022/10/20 13:00:23;;;;;;;5.35;2.85;;;18.40;99.90;;;;;;5021243;28;20050;-71
2022/10/20 13:02:54;;;;;;;8.40;3.53;;;18.30;99.90;;;;;;5032691;28;20254;-71
2022/10/20 13:05:40;;;;;;;8.77;3.60;;;18.30;99.90;;;;;;5022905;28;20034;-71
2022/10/20 13:08:38;;;;;;;7.03;3.70;;;18.10;99.90;;;;;;5021176;28;20045;-73
2022/10/20 13:11:22;;;;;;;;;;;18.00;99.90;;;;;;4942465;29;20043;-71
2022/10/20 13:13:57;;;;;;;5.93;3.65;;;17.90;99.90;;;;;;4942265;29;19985;-73
2022/10/20 13:16:31;;;;;;;6.55;4.40;;;17.90;99.90;;;;;;4941688;29;20063;-71
2022/10/20 13:18:58;;;;;;;6.78;4.28;;;17.90;99.90;;;;;;4925923;29;20094;-73
2022/10/20 13:21:30;;;;;;;8.77;4.45;;;17.90;99.90;;;;;;4941181;29;20036;-71
2022/10/20 13:24:04;;;;;;;8.77;4.85;;;17.90;99.90;;;;;;4941431;29;20040;-72
2022/10/20 13:26:44;;;;;;;7.97;4.53;;;17.90;99.90;;;;;;4940466;29;20448;-72
2022/10/20 13:29:37;;;;;;;7.90;4.57;;;17.70;99.90;;;;;;4941212;29;20048;-73
2022/10/20 13:32:18;;;;;;;11.80;5.40;;;17.70;99.90;;;;;;4924722;29;20040;-71
2022/10/20 13:34:52;;;;;;;8.63;4.68;;;17.70;99.90;;;;;;4941478;29;20194;-71
2022/10/20 13:37:49;;;;;;;7.53;4.88;;;17.80;99.90;;;;;;4941048;29;20043;-73
2022/10/20 13:40:40;;;;;;;7.88;4.40;;;17.80;99.90;;;;;;4906774;29;20056;-73
2022/10/20 13:43:23;;;;;;;10.18;5.10;;;17.80;99.90;;;;;;4922625;29;20040;-72
2022/10/20 13:45:49;;;;;;;8.18;4.80;;;18.00;99.90;;;;;;4934693;28;20261;-71
2022/10/20 13:48:29;;;;;;;8.18;5.32;;;18.10;99.90;;;;;;4984130;28;20033;-72
2022/10/20 13:51:08;;;;;;;9.65;5.40;;;18.30;99.90;;;;;;5001564;28;20035;-73
2022/10/20 13:53:40;;;;;;;9.75;5.18;;;18.30;99.90;;;;;;5007429;28;20084;-72
2022/10/20 13:56:14;;;;;;;8.95;4.65;;;18.40;99.90;;;;;;5040711;28;20140;-71
2022/10/20 13:59:01;;;;;;;6.55;4.47;;;18.40;99.90;;;;;;5023376;28;20045;-71
2022/10/20 14:01:32;;;;;;;10.35;5.10;;;18.50;99.90;;;;;;5040135;28;20087;-71
2022/10/20 14:03:57;;;;;;;6.93;4.07;;;18.60;99.90;;;;;;5034119;28;20044;-72
2022/10/20 14:06:26;;;;;;;9.48;4.13;;;18.60;99.90;;;;;;5020285;28;20042;-71
2022/10/20 14:08:56;;;;;;;17.58;9.35;;;18.70;99.90;;;;;;5020916;28;20283;-71
2022/10/20 14:11:23;;;;;;;10.35;8.65;;;18.80;99.90;;;;;;5020459;28;20034;-72
2022/10/20 14:13:50;;;;;;;7.07;4.60;;;18.90;99.90;;;;;;5021093;28;20026;-71
2022/10/20 14:16:20;;;;;;;7.90;3.97;;;18.80;99.90;;;;;;5020734;28;20026;-73
2022/10/20 14:19:04;;;;;;;9.85;3.95;;;18.80;99.90;;;;;;5020796;28;20057;-71
2022/10/20 14:21:39;;;;;;;8.75;3.75;;;18.70;99.90;;;;;;5020154;28;20050;-72
2022/10/20 14:24:18;;;;;;;6.32;3.95;;;18.70;99.90;;;;;;5020567;28;20108;-72
2022/10/20 14:26:44;;;;;;;10.38;4.97;;;18.60;99.90;;;;;;5020933;28;20030;-72
2022/10/20 14:29:16;;;;;;;7.00;4.15;;;18.50;99.90;;;;;;5020106;28;20022;-71
2022/10/20 14:31:43;;;;;;;7.85;4.75;;;18.50;99.90;;;;;;5020476;28;20034;-71
2022/10/20 14:34:21;;;;;;;7.72;5.10;;;18.40;99.90;;;;;;5020573;28;20101;-70
2022/10/20 14:36:48;;;;;;;9.57;5.32;;;18.30;99.90;;;;;;5020354;28;20097;-71
2022/10/20 14:39:25;;;;;;;8.63;4.10;;;18.20;99.90;;;;;;5023761;28;20049;-73
2022/10/20 14:41:56;;;;;;;9.30;5.03;;;18.10;99.90;;;;;;5024484;28;20316;-73
2022/10/20 14:44:23;;;;;;;8.65;4.93;;;18.10;99.90;;;;;;5021775;28;20153;-70
2022/10/20 14:46:50;;;;;;;13.75;6.10;;;17.90;99.90;;;;;;5023572;28;20057;-70
2022/10/20 14:49:17;;;;;;;14.85;7.05;;;17.90;99.90;;;;;;5023121;28;20045;-73
2022/10/20 14:51:55;;;;;;;9.98;4.80;;;17.90;99.90;;;;;;5023840;28;20089;-72
2022/10/20 14:54:24;;;;;;;;;;;17.80;99.90;;;;;;5033294;28;20038;-72
2022/10/20 14:57:07;;;;;;;7.72;5.40;;;17.80;99.90;;;;;;5043343;28;20226;-72
2022/10/20 14:59:47;;;;;;;11.95;5.35;;;17.80;99.90;;;;;;5042968;28;20100;-71
2022/10/20 15:02:19;;;;;;;9.98;4.65;;;17.80;99.90;;;;;;5042100;28;20045;-71
2022/10/20 15:04:46;;;;;;;12.23;6.57;;;17.70;99.90;;;;;;5030160;28;20034;-72
2022/10/20 15:07:26;;;;;;;24.58;11.43;;;17.70;99.90;;;;;;5022740;28;20034;-72
2022/10/20 15:10:14;;;;;;;10.35;6.10;;;17.70;99.90;;;;;;5023184;28;20053;-71
2022/10/20 15:12:48;;;;;;;8.55;4.55;;;17.60;99.90;;;;;;5023520;28;20052;-71
2022/10/20 15:15:19;;;;;;;23.90;8.45;;;17.60;99.90;;;;;;5024057;28;20045;-72
2022/10/20 15:17:47;;;;;;;8.77;5.22;;;17.60;99.90;;;;;;5024388;28;20318;-71
2022/10/20 15:20:33;;;;;;;11.05;5.85;;;17.50;99.90;;;;;;5023711;28;20029;-71
2022/10/20 15:23:20;;;;;;;8.63;5.47;;;17.50;99.90;;;;;;5024436;28;20029;-74
2022/10/20 15:26:01;;;;;;;9.43;5.30;;;17.50;99.90;;;;;;5024037;28;20204;-72
2022/10/20 15:28:42;;;;;;;8.02;5.47;;;17.40;99.90;;;;;;5023677;28;20109;-71
2022/10/20 15:31:29;;;;;;;9.10;5.03;;;17.30;99.90;;;;;;5024128;28;20041;-77
2022/10/20 15:33:56;;;;;;;14.13;7.13;;;17.20;99.90;;;;;;5023648;28;20324;-70
2022/10/20 15:36:28;;;;;;;15.35;6.88;;;17.20;99.90;;;;;;5023874;28;20064;-71
2022/10/20 15:38:55;;;;;;;15.00;7.88;;;17.20;99.90;;;;;;5023629;28;20038;-74
2022/10/20 15:41:25;;;;;;;10.23;5.70;;;17.20;99.90;;;;;;5023654;28;20034;-72
2022/10/20 15:43:51;;;;;;;9.75;5.20;;;17.20;99.90;;;;;;5024112;28;20018;-72
2022/10/20 15:46:17;;;;;;;15.30;7.43;;;17.20;99.90;;;;;;5023623;28;20106;-71
2022/10/20 15:48:44;;;;;;;14.90;7.18;;;17.10;99.90;;;;;;5023843;28;20049;-74
2022/10/20 15:51:22;;;;;;;21.92;10.88;;;17.10;99.90;;;;;;4990496;28;20026;-72
2022/10/20 15:53:48;;;;;;;;;;;17.10;99.90;;;;;;5024204;28;20048;-71
2022/10/20 15:56:15;;;;;;;11.23;6.43;;;17.00;99.90;;;;;;5022827;28;19949;-73
2022/10/20 15:58:41;;;;;;;13.50;7.47;;;17.00;99.90;;;;;;5005963;28;20038;-73
2022/10/20 16:01:10;;;;;;;8.68;6.47;;;16.90;99.90;;;;;;5023757;28;20032;-74
2022/10/20 16:03:39;;;;;;;13.73;6.07;;;16.90;99.90;;;;;;5023896;28;20272;-72
2022/10/20 16:06:05;;;;;;;17.08;8.68;;;16.90;99.90;;;;;;5023464;28;20057;-73
2022/10/20 16:08:31;;;;;;;11.55;6.97;;;16.80;99.90;;;;;;5005711;28;20112;-72
2022/10/20 16:11:01;;;;;;;10.48;6.07;;;16.80;99.90;;;;;;5023641;28;20133;-76
2022/10/20 16:13:27;;;;;;;9.38;6.63;;;16.80;99.90;;;;;;5021074;28;20025;-71
2022/10/20 16:15:53;;;;;;;9.50;6.15;;;16.80;99.90;;;;;;5023379;28;20083;-71
2022/10/20 16:18:18;;;;;;;9.82;5.88;;;16.70;99.90;;;;;;5022539;28;20085;-73
2022/10/20 16:20:44;;;;;;;7.55;5.72;;;16.60;99.90;;;;;;5023062;28;20022;-71
2022/10/20 16:23:10;;;;;;;10.70;6.00;;;16.60;99.90;;;;;;5023162;28;20137;-73
2022/10/20 16:25:39;;;;;;;9.80;5.78;;;16.60;99.90;;;;;;5022574;28;20228;-72
2022/10/20 16:28:11;;;;;;;12.40;6.90;;;16.50;99.90;;;;;;5023238;28;20220;-74
2022/10/20 16:30:36;;;;;;;7.93;5.70;;;16.50;99.90;;;;;;5021222;28;20096;-75
2022/10/20 16:33:02;;;;;;;10.95;5.35;;;16.50;99.90;;;;;;5022765;28;20231;-73
2022/10/20 16:35:28;;;;;;;13.73;7.95;;;16.50;99.90;;;;;;5021379;28;20160;-74
2022/10/20 16:37:54;;;;;;;14.25;8.07;;;16.50;99.90;;;;;;5022440;28;20100;-73
2022/10/20 16:40:19;;;;;;;10.80;6.63;;;16.40;99.90;;;;;;5022334;28;20025;-72
2022/10/20 16:42:45;;;;;;;15.48;8.93;;;16.40;99.90;;;;;;5022785;28;20026;-71
2022/10/20 16:45:11;;;;;;;8.88;6.22;;;16.40;99.90;;;;;;5021663;28;20029;-74
2022/10/20 16:47:36;;;;;;;9.23;6.00;;;16.30;99.90;;;;;;5022310;28;20136;-71
2022/10/20 16:50:03;;;;;;;10.15;5.93;;;16.30;99.90;;;;;;5022438;28;20038;-71
2022/10/20 16:52:29;;;;;;;10.15;6.20;;;16.30;99.90;;;;;;5004681;28;20029;-73
2022/10/20 16:55:01;;;;;;;8.50;6.38;;;16.30;99.90;;;;;;5021847;28;20040;-74
2022/10/20 16:57:28;;;;;;;10.20;6.28;;;16.30;99.90;;;;;;5022251;28;20030;-73
2022/10/20 16:59:54;;;;;;;9.90;6.03;;;16.30;99.90;;;;;;5021771;28;20060;-71
2022/10/20 17:02:20;;;;;;;9.35;5.65;;;16.30;99.90;;;;;;5021902;28;20050;-74
2022/10/20 17:04:49;;;;;;;17.08;11.98;;;16.30;99.90;;;;;;5022212;28;20038;-71
2022/10/20 17:07:16;;;;;;;10.30;6.93;;;16.30;99.90;;;;;;5021630;28;20193;-73
2022/10/20 17:09:41;;;;;;;12.30;8.00;;;16.30;99.90;;;;;;5022232;28;20030;-74
2022/10/20 17:12:07;;;;;;;13.88;8.70;;;16.30;99.90;;;;;;5022203;28;20034;-72
2022/10/20 17:14:33;;;;;;;11.52;7.85;;;16.30;99.90;;;;;;5022297;28;20283;-71
2022/10/20 17:16:59;;;;;;;13.27;7.50;;;16.30;99.90;;;;;;5022284;28;20034;-74
2022/10/20 17:19:25;;;;;;;9.75;7.07;;;16.20;99.90;;;;;;5021670;28;20060;-73
2022/10/20 17:21:51;;;;;;;10.43;6.75;;;16.20;99.90;;;;;;4988680;28;20077;-73
2022/10/20 17:24:17;;;;;;;14.77;7.93;;;16.10;99.90;;;;;;5014673;28;20025;-73
2022/10/20 17:26:42;;;;;;;14.95;10.05;;;16.20;99.90;;;;;;5002298;28;20170;-75
2022/10/20 17:29:09;;;;;;;12.32;8.25;;;16.10;99.90;;;;;;5002704;28;20026;-72
2022/10/20 17:31:36;;;;;;;13.85;8.05;;;16.10;99.90;;;;;;5018609;28;20220;-71
2022/10/20 17:34:03;;;;;;;21.88;15.15;;;16.10;99.90;;;;;;5022031;28;20040;-74
2022/10/20 17:36:29;;;;;;;13.63;10.38;;;16.10;99.90;;;;;;5021550;28;20034;-74
2022/10/20 17:39:02;;;;;;;13.88;7.53;;;16.10;99.90;;;;;;5022198;28;20025;-74
2022/10/20 17:41:28;;;;;;;12.45;8.50;;;16.10;99.90;;;;;;5004034;28;20256;-73
2022/10/20 17:43:54;;;;;;;14.15;8.93;;;16.00;99.90;;;;;;5022377;28;20033;-73
2022/10/20 17:46:20;;;;;;;11.60;7.47;;;16.00;99.90;;;;;;5021549;28;20030;-74
2022/10/20 17:48:46;;;;;;;13.82;7.90;;;16.10;99.90;;;;;;5021583;28;20093;-72
2022/10/20 17:51:15;;;;;;;16.45;9.02;;;16.00;99.90;;;;;;5021690;28;20056;-72
2022/10/20 17:53:44;;;;;;;11.57;7.43;;;16.00;99.90;;;;;;5004419;28;20033;-74
2022/10/20 17:56:11;;;;;;;;;;;16.00;99.90;;;;;;5022536;28;20029;-73
2022/10/20 17:58:37;;;;;;;12.02;8.35;;;16.00;99.90;;;;;;5021552;28;20099;-72
2022/10/20 18:01:28;;;;;;;22.08;9.00;;;16.00;99.90;;;;;;5021680;28;20046;-71
2022/10/20 18:03:59;;;;;;;17.30;8.85;;;16.00;99.90;;;;;;5002082;28;20077;-73
2022/10/20 18:06:27;;;;;;;15.95;9.05;;;16.00;99.90;;;;;;5001729;28;20026;-73
2022/10/20 18:08:55;;;;;;;14.30;8.40;;;16.00;99.90;;;;;;5002129;28;20077;-74
2022/10/20 18:11:23;;;;;;;14.83;8.60;;;16.00;99.90;;;;;;5001951;28;20030;-72
2022/10/20 18:13:49;;;;;;;12.30;9.15;;;15.90;99.90;;;;;;5005821;28;20045;-73
2022/10/20 18:16:17;;;;;;;14.20;9.15;;;15.90;99.90;;;;;;5005670;28;20034;-74